KDAN/DAN METAR and TAF weather

Enter ICAO airport designator
Station Type Date Time Source
KDAN METAR 2022/01/23 11:53 UTC NOAA

KDAN 231153Z AUTO 21003KT 10SM CLR M09/M13 A3007 RMK AO2 SLP184 T10941128 11061 21100 55006


Station Type Date Time Source
KDAN Decoded METAR 2022/01/23 11:53 UTC NOAA

DANVILLE REGIONAL AIRPORT, VA, United States (KDAN) 36-34N 079-20W 175M
Jan 23, 2022 - 06:53 AM EST / 2022.01.23 1153 UTC
Wind: from the SSW (210 degrees) at 3 MPH (3 KT):0
Visibility: 10 mile(s):0
Sky conditions: clear
Temperature: 15.1 F (-9.4 C)
Dew Point: 9.0 F (-12.8 C)
Relative Humidity: 76%
Pressure (altimeter): 30.07 in. Hg (1018 hPa)
Pressure tendency: 0.02 inches (0.6 hPa) lower than three hours ago
ob: KDAN 231153Z AUTO 21003KT 10SM CLR M09/M13 A3007 RMK AO2 SLP184 T10941128 11061 21100 55006
cycle: 12

Station Type Date Time Source
KDAN TAF 2022/01/23 12:22 UTC NOAA

TAF KDAN 231120Z 2312/2412 00000KT P6SM SCT200
FM231900 23006KT P6SM SCT250
FM240800 VRB03KT P6SM OVC200

Example: see airport list